sensor_id;sensor_type;location;lat;lon;timestamp;P1;durP1;ratioP1;P2;durP2;ratioP2
22289;SDS011;11313;50.116;8.424;2024-03-08T00:03:49;2.60;;;2.40;;
22289;SDS011;11313;50.116;8.424;2024-03-08T00:06:23;2.60;;;2.40;;
22289;SDS011;11313;50.116;8.424;2024-03-08T00:08:51;2.92;;;2.63;;
22289;SDS011;11313;50.116;8.424;2024-03-08T00:11:34;2.50;;;2.30;;
22289;SDS011;11313;50.116;8.424;2024-03-08T00:14:07;3.00;;;2.38;;
22289;SDS011;11313;50.116;8.424;2024-03-08T00:16:35;2.47;;;2.28;;
22289;SDS011;11313;50.116;8.424;2024-03-08T00:19:03;3.78;;;2.63;;
22289;SDS011;11313;50.116;8.424;2024-03-08T00:21:33;3.33;;;2.65;;
22289;SDS011;11313;50.116;8.424;2024-03-08T00:24:08;3.53;;;2.60;;
22289;SDS011;11313;50.116;8.424;2024-03-08T00:26:34;3.45;;;2.60;;
22289;SDS011;11313;50.116;8.424;2024-03-08T00:29:11;2.90;;;2.20;;
22289;SDS011;11313;50.116;8.424;2024-03-08T00:31:42;2.50;;;2.30;;
22289;SDS011;11313;50.116;8.424;2024-03-08T00:34:08;2.90;;;2.60;;
22289;SDS011;11313;50.116;8.424;2024-03-08T00:36:39;2.50;;;2.30;;
22289;SDS011;11313;50.116;8.424;2024-03-08T00:39:19;3.08;;;2.50;;
22289;SDS011;11313;50.116;8.424;2024-03-08T00:41:46;2.60;;;2.40;;
22289;SDS011;11313;50.116;8.424;2024-03-08T00:44:12;2.72;;;2.40;;
22289;SDS011;11313;50.116;8.424;2024-03-08T00:46:40;2.60;;;2.40;;
22289;SDS011;11313;50.116;8.424;2024-03-08T00:49:16;2.90;;;2.58;;
22289;SDS011;11313;50.116;8.424;2024-03-08T00:51:45;5.07;;;2.42;;
22289;SDS011;11313;50.116;8.424;2024-03-08T00:54:13;2.80;;;2.25;;
22289;SDS011;11313;50.116;8.424;2024-03-08T00:56:38;3.38;;;2.50;;
22289;SDS011;11313;50.116;8.424;2024-03-08T00:59:21;2.60;;;2.40;;
22289;SDS011;11313;50.116;8.424;2024-03-08T01:04:38;2.80;;;2.60;;
22289;SDS011;11313;50.116;8.424;2024-03-08T01:07:11;2.88;;;2.35;;
22289;SDS011;11313;50.116;8.424;2024-03-08T01:09:41;2.22;;;2.03;;
22289;SDS011;11313;50.116;8.424;2024-03-08T01:12:07;2.97;;;2.40;;
22289;SDS011;11313;50.116;8.424;2024-03-08T01:14:45;3.10;;;2.40;;
22289;SDS011;11313;50.116;8.424;2024-03-08T01:17:10;2.83;;;2.30;;
22289;SDS011;11313;50.116;8.424;2024-03-08T01:19:38;2.90;;;2.60;;
22289;SDS011;11313;50.116;8.424;2024-03-08T01:22:06;2.60;;;2.40;;
22289;SDS011;11313;50.116;8.424;2024-03-08T01:24:32;2.63;;;2.42;;
22289;SDS011;11313;50.116;8.424;2024-03-08T01:26:59;2.85;;;2.45;;
22289;SDS011;11313;50.116;8.424;2024-03-08T01:29:25;3.20;;;2.58;;
22289;SDS011;11313;50.116;8.424;2024-03-08T01:31:51;3.53;;;2.40;;
22289;SDS011;11313;50.116;8.424;2024-03-08T01:34:19;2.40;;;2.20;;
22289;SDS011;11313;50.116;8.424;2024-03-08T01:36:55;2.45;;;2.25;;
22289;SDS011;11313;50.116;8.424;2024-03-08T01:39:21;2.90;;;2.45;;
22289;SDS011;11313;50.116;8.424;2024-03-08T01:41:47;4.10;;;2.70;;
22289;SDS011;11313;50.116;8.424;2024-03-08T01:44:13;2.38;;;2.17;;
22289;SDS011;11313;50.116;8.424;2024-03-08T01:46:46;2.40;;;2.20;;
22289;SDS011;11313;50.116;8.424;2024-03-08T01:49:13;2.53;;;2.33;;
22289;SDS011;11313;50.116;8.424;2024-03-08T01:51:46;2.78;;;2.05;;
22289;SDS011;11313;50.116;8.424;2024-03-08T01:54:16;3.90;;;2.50;;
22289;SDS011;11313;50.116;8.424;2024-03-08T01:56:43;3.38;;;2.20;;
22289;SDS011;11313;50.116;8.424;2024-03-08T01:59:09;2.60;;;2.40;;
22289;SDS011;11313;50.116;8.424;2024-03-08T02:01:39;2.55;;;2.20;;
22289;SDS011;11313;50.116;8.424;2024-03-08T02:04:05;2.97;;;2.58;;
22289;SDS011;11313;50.116;8.424;2024-03-08T02:06:41;2.50;;;2.30;;
22289;SDS011;11313;50.116;8.424;2024-03-08T02:09:07;2.85;;;2.40;;
22289;SDS011;11313;50.116;8.424;2024-03-08T02:11:40;2.40;;;2.20;;
22289;SDS011;11313;50.116;8.424;2024-03-08T02:14:06;2.70;;;2.50;;
22289;SDS011;11313;50.116;8.424;2024-03-08T02:16:32;2.60;;;2.40;;
22289;SDS011;11313;50.116;8.424;2024-03-08T02:19:00;2.70;;;2.50;;
22289;SDS011;11313;50.116;8.424;2024-03-08T02:21:26;2.33;;;2.13;;
22289;SDS011;11313;50.116;8.424;2024-03-08T02:23:54;2.47;;;2.28;;
22289;SDS011;11313;50.116;8.424;2024-03-08T02:26:23;2.55;;;2.22;;
22289;SDS011;11313;50.116;8.424;2024-03-08T02:28:52;2.83;;;2.53;;
22289;SDS011;11313;50.116;8.424;2024-03-08T02:31:26;2.75;;;2.38;;
22289;SDS011;11313;50.116;8.424;2024-03-08T02:33:54;2.50;;;2.30;;
22289;SDS011;11313;50.116;8.424;2024-03-08T02:36:20;2.60;;;2.40;;
22289;SDS011;11313;50.116;8.424;2024-03-08T02:38:48;2.63;;;2.42;;
22289;SDS011;11313;50.116;8.424;2024-03-08T02:41:14;2.63;;;2.30;;
22289;SDS011;11313;50.116;8.424;2024-03-08T02:43:40;2.42;;;2.22;;
22289;SDS011;11313;50.116;8.424;2024-03-08T02:46:05;2.72;;;2.33;;
22289;SDS011;11313;50.116;8.424;2024-03-08T02:48:34;2.50;;;2.30;;
22289;SDS011;11313;50.116;8.424;2024-03-08T02:51:00;2.78;;;2.20;;
22289;SDS011;11313;50.116;8.424;2024-03-08T02:53:29;2.50;;;2.30;;
22289;SDS011;11313;50.116;8.424;2024-03-08T02:55:54;2.45;;;2.20;;
22289;SDS011;11313;50.116;8.424;2024-03-08T02:58:20;2.50;;;2.30;;
22289;SDS011;11313;50.116;8.424;2024-03-08T03:00:48;2.42;;;2.22;;
22289;SDS011;11313;50.116;8.424;2024-03-08T03:03:27;2.55;;;2.35;;
22289;SDS011;11313;50.116;8.424;2024-03-08T03:05:53;2.67;;;2.47;;
22289;SDS011;11313;50.116;8.424;2024-03-08T03:08:21;2.63;;;2.42;;
22289;SDS011;11313;50.116;8.424;2024-03-08T03:10:47;2.55;;;2.35;;
22289;SDS011;11313;50.116;8.424;2024-03-08T03:13:23;2.72;;;2.53;;
22289;SDS011;11313;50.116;8.424;2024-03-08T03:15:49;2.55;;;2.35;;
22289;SDS011;11313;50.116;8.424;2024-03-08T03:18:17;2.40;;;2.20;;
22289;SDS011;11313;50.116;8.424;2024-03-08T03:20:46;2.75;;;2.55;;
22289;SDS011;11313;50.116;8.424;2024-03-08T03:23:14;2.50;;;2.30;;
22289;SDS011;11313;50.116;8.424;2024-03-08T03:25:48;2.85;;;2.55;;
22289;SDS011;11313;50.116;8.424;2024-03-08T03:28:13;2.78;;;2.38;;
22289;SDS011;11313;50.116;8.424;2024-03-08T03:30:44;3.25;;;2.40;;
22289;SDS011;11313;50.116;8.424;2024-03-08T03:33:11;2.38;;;2.17;;
22289;SDS011;11313;50.116;8.424;2024-03-08T03:35:39;2.35;;;2.15;;
22289;SDS011;11313;50.116;8.424;2024-03-08T03:38:06;2.50;;;2.30;;
22289;SDS011;11313;50.116;8.424;2024-03-08T03:40:38;3.05;;;2.30;;
22289;SDS011;11313;50.116;8.424;2024-03-08T03:43:13;2.40;;;2.20;;
22289;SDS011;11313;50.116;8.424;2024-03-08T03:45:39;2.58;;;2.35;;
22289;SDS011;11313;50.116;8.424;2024-03-08T03:48:06;2.40;;;2.20;;
22289;SDS011;11313;50.116;8.424;2024-03-08T03:50:40;2.50;;;2.30;;
22289;SDS011;11313;50.116;8.424;2024-03-08T03:53:05;2.53;;;2.20;;
22289;SDS011;11313;50.116;8.424;2024-03-08T03:55:34;2.42;;;2.22;;
22289;SDS011;11313;50.116;8.424;2024-03-08T03:58:01;2.35;;;2.15;;
22289;SDS011;11313;50.116;8.424;2024-03-08T04:00:30;2.50;;;2.30;;
22289;SDS011;11313;50.116;8.424;2024-03-08T04:02:58;2.42;;;2.22;;
22289;SDS011;11313;50.116;8.424;2024-03-08T04:05:25;2.75;;;2.40;;
22289;SDS011;11313;50.116;8.424;2024-03-08T04:07:51;2.63;;;2.42;;
22289;SDS011;11313;50.116;8.424;2024-03-08T04:10:19;2.55;;;2.30;;
22289;SDS011;11313;50.116;8.424;2024-03-08T04:12:45;2.70;;;2.50;;
22289;SDS011;11313;50.116;8.424;2024-03-08T04:15:13;2.22;;;2.03;;
22289;SDS011;11313;50.116;8.424;2024-03-08T04:17:40;2.60;;;2.40;;
22289;SDS011;11313;50.116;8.424;2024-03-08T04:20:15;2.50;;;2.30;;
22289;SDS011;11313;50.116;8.424;2024-03-08T04:22:44;2.60;;;2.40;;
22289;SDS011;11313;50.116;8.424;2024-03-08T04:25:15;2.40;;;2.20;;
22289;SDS011;11313;50.116;8.424;2024-03-08T04:27:47;2.28;;;2.08;;
22289;SDS011;11313;50.116;8.424;2024-03-08T04:30:14;2.53;;;2.33;;
22289;SDS011;11313;50.116;8.424;2024-03-08T04:32:40;2.33;;;2.13;;
22289;SDS011;11313;50.116;8.424;2024-03-08T04:35:11;2.38;;;2.17;;
22289;SDS011;11313;50.116;8.424;2024-03-08T04:37:40;2.50;;;2.30;;
22289;SDS011;11313;50.116;8.424;2024-03-08T04:40:06;2.50;;;2.30;;
22289;SDS011;11313;50.116;8.424;2024-03-08T04:42:32;2.78;;;2.50;;
22289;SDS011;11313;50.116;8.424;2024-03-08T04:44:59;2.60;;;2.40;;
22289;SDS011;11313;50.116;8.424;2024-03-08T04:47:28;2.40;;;2.15;;
22289;SDS011;11313;50.116;8.424;2024-03-08T04:49:53;2.53;;;2.33;;
22289;SDS011;11313;50.116;8.424;2024-03-08T04:52:21;2.00;;;1.90;;
22289;SDS011;11313;50.116;8.424;2024-03-08T04:54:54;2.60;;;2.40;;
22289;SDS011;11313;50.116;8.424;2024-03-08T04:57:20;3.00;;;2.33;;
22289;SDS011;11313;50.116;8.424;2024-03-08T04:59:45;2.50;;;2.30;;
22289;SDS011;11313;50.116;8.424;2024-03-08T05:02:16;2.42;;;2.22;;
22289;SDS011;11313;50.116;8.424;2024-03-08T05:04:43;2.83;;;2.47;;
22289;SDS011;11313;50.116;8.424;2024-03-08T05:07:10;2.47;;;2.28;;
22289;SDS011;11313;50.116;8.424;2024-03-08T05:09:44;2.58;;;2.38;;
22289;SDS011;11313;50.116;8.424;2024-03-08T05:12:16;2.50;;;2.30;;
22289;SDS011;11313;50.116;8.424;2024-03-08T05:14:54;4.47;;;2.50;;
22289;SDS011;11313;50.116;8.424;2024-03-08T05:23:49;8.70;;;3.83;;
22289;SDS011;11313;50.116;8.424;2024-03-08T13:17:51;8.38;;;4.32;;
22289;SDS011;11313;50.116;8.424;2024-03-08T13:20:17;6.35;;;4.43;;
22289;SDS011;11313;50.116;8.424;2024-03-08T13:22:47;7.57;;;4.30;;
22289;SDS011;11313;50.116;8.424;2024-03-08T13:25:13;7.43;;;3.90;;
22289;SDS011;11313;50.116;8.424;2024-03-08T13:27:42;5.80;;;3.80;;
22289;SDS011;11313;50.116;8.424;2024-03-08T13:30:08;6.85;;;4.53;;
22289;SDS011;11313;50.116;8.424;2024-03-08T13:32:42;6.82;;;4.78;;
22289;SDS011;11313;50.116;8.424;2024-03-08T13:35:11;5.65;;;4.25;;
22289;SDS011;11313;50.116;8.424;2024-03-08T13:37:40;6.50;;;4.10;;
22289;SDS011;11313;50.116;8.424;2024-03-08T13:40:07;7.40;;;4.43;;
22289;SDS011;11313;50.116;8.424;2024-03-08T13:42:37;6.13;;;4.25;;
22289;SDS011;11313;50.116;8.424;2024-03-08T13:45:07;7.50;;;4.43;;
22289;SDS011;11313;50.116;8.424;2024-03-08T13:50:02;6.15;;;4.25;;
22289;SDS011;11313;50.116;8.424;2024-03-08T13:52:29;6.65;;;4.50;;
22289;SDS011;11313;50.116;8.424;2024-03-08T13:54:54;7.05;;;4.40;;
22289;SDS011;11313;50.116;8.424;2024-03-08T13:57:20;6.20;;;4.35;;
22289;SDS011;11313;50.116;8.424;2024-03-08T13:59:47;4.82;;;4.20;;
22289;SDS011;11313;50.116;8.424;2024-03-08T14:02:16;5.65;;;4.30;;
22289;SDS011;11313;50.116;8.424;2024-03-08T14:04:42;5.25;;;4.20;;
22289;SDS011;11313;50.116;8.424;2024-03-08T14:07:07;7.13;;;4.30;;
22289;SDS011;11313;50.116;8.424;2024-03-08T14:09:33;9.45;;;4.45;;
22289;SDS011;11313;50.116;8.424;2024-03-08T14:12:02;5.18;;;3.88;;
22289;SDS011;11313;50.116;8.424;2024-03-08T14:14:32;5.78;;;4.18;;
22289;SDS011;11313;50.116;8.424;2024-03-08T14:17:00;6.70;;;4.35;;
22289;SDS011;11313;50.116;8.424;2024-03-08T14:19:27;6.25;;;3.70;;
22289;SDS011;11313;50.116;8.424;2024-03-08T14:21:53;5.97;;;4.00;;
22289;SDS011;11313;50.116;8.424;2024-03-08T14:24:19;5.57;;;4.00;;
22289;SDS011;11313;50.116;8.424;2024-03-08T14:26:45;6.63;;;4.40;;
22289;SDS011;11313;50.116;8.424;2024-03-08T14:29:13;6.20;;;4.07;;
22289;SDS011;11313;50.116;8.424;2024-03-08T14:31:39;5.38;;;4.10;;
22289;SDS011;11313;50.116;8.424;2024-03-08T14:34:06;7.22;;;4.50;;
22289;SDS011;11313;50.116;8.424;2024-03-08T14:36:32;4.95;;;4.10;;
22289;SDS011;11313;50.116;8.424;2024-03-08T14:38:58;4.80;;;4.28;;
22289;SDS011;11313;50.116;8.424;2024-03-08T14:41:23;6.28;;;4.00;;
22289;SDS011;11313;50.116;8.424;2024-03-08T14:43:49;5.78;;;4.15;;
22289;SDS011;11313;50.116;8.424;2024-03-08T14:46:17;5.25;;;3.90;;
22289;SDS011;11313;50.116;8.424;2024-03-08T14:48:49;5.22;;;4.30;;
22289;SDS011;11313;50.116;8.424;2024-03-08T14:51:16;5.47;;;4.13;;
22289;SDS011;11313;50.116;8.424;2024-03-08T14:53:44;6.28;;;4.40;;
22289;SDS011;11313;50.116;8.424;2024-03-08T14:56:13;6.55;;;4.20;;
22289;SDS011;11313;50.116;8.424;2024-03-08T14:58:42;4.82;;;3.70;;
22289;SDS011;11313;50.116;8.424;2024-03-08T15:01:23;5.10;;;4.15;;
22289;SDS011;11313;50.116;8.424;2024-03-08T15:03:53;5.45;;;4.20;;
22289;SDS011;11313;50.116;8.424;2024-03-08T15:06:19;7.15;;;4.10;;
22289;SDS011;11313;50.116;8.424;2024-03-08T15:08:46;6.50;;;4.25;;
22289;SDS011;11313;50.116;8.424;2024-03-08T15:11:12;5.25;;;4.22;;
22289;SDS011;11313;50.116;8.424;2024-03-08T15:13:46;5.95;;;3.90;;
22289;SDS011;11313;50.116;8.424;2024-03-08T15:16:18;5.57;;;4.20;;
22289;SDS011;11313;50.116;8.424;2024-03-08T15:18:46;5.40;;;4.25;;
22289;SDS011;11313;50.116;8.424;2024-03-08T15:21:12;5.00;;;3.97;;
22289;SDS011;11313;50.116;8.424;2024-03-08T15:23:43;5.03;;;3.97;;
22289;SDS011;11313;50.116;8.424;2024-03-08T15:26:14;4.90;;;4.10;;
22289;SDS011;11313;50.116;8.424;2024-03-08T15:28:41;4.55;;;3.80;;
22289;SDS011;11313;50.116;8.424;2024-03-08T15:31:09;4.90;;;3.67;;
22289;SDS011;11313;50.116;8.424;2024-03-08T15:33:41;5.22;;;3.95;;
22289;SDS011;11313;50.116;8.424;2024-03-08T15:36:11;6.60;;;4.18;;
22289;SDS011;11313;50.116;8.424;2024-03-08T15:49:11;4.88;;;3.92;;
22289;SDS011;11313;50.116;8.424;2024-03-08T15:51:37;6.47;;;4.00;;
22289;SDS011;11313;50.116;8.424;2024-03-08T15:54:02;4.68;;;3.65;;
22289;SDS011;11313;50.116;8.424;2024-03-08T15:56:29;4.88;;;3.80;;
22289;SDS011;11313;50.116;8.424;2024-03-08T15:58:56;5.88;;;3.97;;
22289;SDS011;11313;50.116;8.424;2024-03-08T16:01:22;5.10;;;3.85;;
22289;SDS011;11313;50.116;8.424;2024-03-08T16:03:49;6.20;;;3.80;;
22289;SDS011;11313;50.116;8.424;2024-03-08T16:06:18;5.68;;;3.92;;
22289;SDS011;11313;50.116;8.424;2024-03-08T16:08:47;6.60;;;4.03;;
22289;SDS011;11313;50.116;8.424;2024-03-08T16:11:13;5.47;;;3.88;;
22289;SDS011;11313;50.116;8.424;2024-03-08T16:13:42;5.95;;;4.13;;
22289;SDS011;11313;50.116;8.424;2024-03-08T16:16:07;5.97;;;4.18;;
22289;SDS011;11313;50.116;8.424;2024-03-08T16:18:33;6.22;;;4.10;;
22289;SDS011;11313;50.116;8.424;2024-03-08T16:21:06;4.85;;;3.80;;
22289;SDS011;11313;50.116;8.424;2024-03-08T16:23:34;4.82;;;3.90;;
22289;SDS011;11313;50.116;8.424;2024-03-08T16:26:01;6.45;;;3.83;;
22289;SDS011;11313;50.116;8.424;2024-03-08T16:28:27;5.05;;;3.85;;
22289;SDS011;11313;50.116;8.424;2024-03-08T16:31:03;5.40;;;3.78;;
22289;SDS011;11313;50.116;8.424;2024-03-08T16:33:29;4.75;;;3.60;;
22289;SDS011;11313;50.116;8.424;2024-03-08T16:35:55;6.65;;;4.00;;
22289;SDS011;11313;50.116;8.424;2024-03-08T16:38:21;4.93;;;3.53;;
22289;SDS011;11313;50.116;8.424;2024-03-08T16:40:49;6.55;;;3.80;;
22289;SDS011;11313;50.116;8.424;2024-03-08T16:43:19;4.35;;;3.47;;
22289;SDS011;11313;50.116;8.424;2024-03-08T16:45:48;4.05;;;3.60;;
22289;SDS011;11313;50.116;8.424;2024-03-08T16:48:15;6.43;;;4.47;;
22289;SDS011;11313;50.116;8.424;2024-03-08T16:50:41;4.57;;;3.65;;
22289;SDS011;11313;50.116;8.424;2024-03-08T16:53:07;5.10;;;3.65;;
22289;SDS011;11313;50.116;8.424;2024-03-08T16:55:33;4.50;;;3.45;;
22289;SDS011;11313;50.116;8.424;2024-03-08T16:57:59;5.38;;;3.80;;
22289;SDS011;11313;50.116;8.424;2024-03-08T17:00:25;4.97;;;3.42;;
22289;SDS011;11313;50.116;8.424;2024-03-08T17:02:55;5.65;;;3.85;;
22289;SDS011;11313;50.116;8.424;2024-03-08T17:05:24;5.57;;;3.70;;
22289;SDS011;11313;50.116;8.424;2024-03-08T17:08:01;5.30;;;3.83;;
22289;SDS011;11313;50.116;8.424;2024-03-08T17:10:31;5.25;;;3.65;;
22289;SDS011;11313;50.116;8.424;2024-03-08T17:12:59;3.92;;;3.50;;
22289;SDS011;11313;50.116;8.424;2024-03-08T17:15:25;5.88;;;3.90;;
22289;SDS011;11313;50.116;8.424;2024-03-08T17:17:54;8.32;;;3.97;;
22289;SDS011;11313;50.116;8.424;2024-03-08T17:20:24;6.28;;;4.10;;
22289;SDS011;11313;50.116;8.424;2024-03-08T17:22:51;4.50;;;3.60;;
22289;SDS011;11313;50.116;8.424;2024-03-08T17:25:19;5.15;;;3.83;;
22289;SDS011;11313;50.116;8.424;2024-03-08T17:27:46;4.78;;;3.53;;
22289;SDS011;11313;50.116;8.424;2024-03-08T17:30:18;6.38;;;3.60;;
22289;SDS011;11313;50.116;8.424;2024-03-08T17:32:47;6.60;;;3.90;;
22289;SDS011;11313;50.116;8.424;2024-03-08T17:35:20;4.80;;;3.55;;
22289;SDS011;11313;50.116;8.424;2024-03-08T17:37:47;5.72;;;3.72;;
22289;SDS011;11313;50.116;8.424;2024-03-08T17:40:15;4.30;;;3.30;;
22289;SDS011;11313;50.116;8.424;2024-03-08T17:42:46;4.32;;;3.35;;
22289;SDS011;11313;50.116;8.424;2024-03-08T17:45:12;6.13;;;3.92;;
22289;SDS011;11313;50.116;8.424;2024-03-08T17:47:38;6.10;;;3.70;;
22289;SDS011;11313;50.116;8.424;2024-03-08T17:50:04;7.50;;;4.07;;
22289;SDS011;11313;50.116;8.424;2024-03-08T17:55:03;5.90;;;3.70;;
22289;SDS011;11313;50.116;8.424;2024-03-08T17:57:29;5.13;;;3.33;;
22289;SDS011;11313;50.116;8.424;2024-03-08T17:59:56;10.00;;;3.83;;
22289;SDS011;11313;50.116;8.424;2024-03-08T18:02:21;5.80;;;3.75;;
22289;SDS011;11313;50.116;8.424;2024-03-08T18:04:49;5.82;;;3.35;;
22289;SDS011;11313;50.116;8.424;2024-03-08T18:07:14;7.00;;;3.42;;
22289;SDS011;11313;50.116;8.424;2024-03-08T18:09:40;6.15;;;3.90;;
22289;SDS011;11313;50.116;8.424;2024-03-08T18:12:05;3.83;;;3.25;;
22289;SDS011;11313;50.116;8.424;2024-03-08T18:14:33;6.65;;;3.85;;
22289;SDS011;11313;50.116;8.424;2024-03-08T18:16:59;6.70;;;3.25;;
22289;SDS011;11313;50.116;8.424;2024-03-08T18:19:25;6.28;;;4.00;;
22289;SDS011;11313;50.116;8.424;2024-03-08T18:21:50;5.38;;;3.67;;
22289;SDS011;11313;50.116;8.424;2024-03-08T18:24:17;5.95;;;3.42;;
22289;SDS011;11313;50.116;8.424;2024-03-08T18:26:43;5.82;;;3.63;;
22289;SDS011;11313;50.116;8.424;2024-03-08T18:29:10;6.20;;;3.60;;
22289;SDS011;11313;50.116;8.424;2024-03-08T18:31:35;5.93;;;3.13;;
22289;SDS011;11313;50.116;8.424;2024-03-08T18:34:01;6.93;;;3.47;;
22289;SDS011;11313;50.116;8.424;2024-03-08T18:36:30;4.87;;;3.70;;
22289;SDS011;11313;50.116;8.424;2024-03-08T18:38:58;7.68;;;3.90;;
22289;SDS011;11313;50.116;8.424;2024-03-08T18:41:25;4.57;;;3.50;;
22289;SDS011;11313;50.116;8.424;2024-03-08T18:43:58;7.28;;;3.65;;
22289;SDS011;11313;50.116;8.424;2024-03-08T18:46:24;7.68;;;3.60;;
22289;SDS011;11313;50.116;8.424;2024-03-08T18:48:53;9.15;;;3.70;;
22289;SDS011;11313;50.116;8.424;2024-03-08T18:51:19;6.88;;;3.70;;
22289;SDS011;11313;50.116;8.424;2024-03-08T18:53:45;5.63;;;3.78;;
22289;SDS011;11313;50.116;8.424;2024-03-08T18:56:10;6.50;;;3.58;;
22289;SDS011;11313;50.116;8.424;2024-03-08T18:58:39;4.68;;;3.60;;
22289;SDS011;11313;50.116;8.424;2024-03-08T19:01:05;5.53;;;3.72;;
22289;SDS011;11313;50.116;8.424;2024-03-08T19:03:31;8.27;;;3.80;;
22289;SDS011;11313;50.116;8.424;2024-03-08T19:05:59;5.85;;;3.50;;
22289;SDS011;11313;50.116;8.424;2024-03-08T19:08:27;5.45;;;3.40;;
22289;SDS011;11313;50.116;8.424;2024-03-08T19:10:53;4.68;;;3.30;;
22289;SDS011;11313;50.116;8.424;2024-03-08T19:13:22;5.03;;;3.70;;
22289;SDS011;11313;50.116;8.424;2024-03-08T19:15:48;6.20;;;3.78;;
22289;SDS011;11313;50.116;8.424;2024-03-08T19:18:16;4.20;;;3.20;;
22289;SDS011;11313;50.116;8.424;2024-03-08T19:20:42;6.03;;;3.60;;
22289;SDS011;11313;50.116;8.424;2024-03-08T19:23:08;6.35;;;3.70;;
22289;SDS011;11313;50.116;8.424;2024-03-08T19:25:35;6.63;;;3.92;;
22289;SDS011;11313;50.116;8.424;2024-03-08T19:28:06;4.93;;;3.22;;
22289;SDS011;11313;50.116;8.424;2024-03-08T19:30:34;6.70;;;3.25;;
22289;SDS011;11313;50.116;8.424;2024-03-08T19:33:02;6.57;;;3.30;;
22289;SDS011;11313;50.116;8.424;2024-03-08T19:35:29;6.70;;;3.60;;
22289;SDS011;11313;50.116;8.424;2024-03-08T19:37:56;4.25;;;3.13;;
22289;SDS011;11313;50.116;8.424;2024-03-08T19:40:27;4.68;;;3.55;;
22289;SDS011;11313;50.116;8.424;2024-03-08T19:43:02;4.90;;;3.70;;
22289;SDS011;11313;50.116;8.424;2024-03-08T19:45:30;5.70;;;3.33;;
22289;SDS011;11313;50.116;8.424;2024-03-08T19:47:58;5.75;;;3.63;;
22289;SDS011;11313;50.116;8.424;2024-03-08T19:50:26;4.40;;;3.50;;
22289;SDS011;11313;50.116;8.424;2024-03-08T19:52:53;5.05;;;3.60;;
22289;SDS011;11313;50.116;8.424;2024-03-08T19:55:20;4.15;;;3.08;;
22289;SDS011;11313;50.116;8.424;2024-03-08T19:57:46;4.57;;;3.35;;
22289;SDS011;11313;50.116;8.424;2024-03-08T20:00:16;4.03;;;3.40;;
22289;SDS011;11313;50.116;8.424;2024-03-08T20:02:46;6.10;;;3.25;;
22289;SDS011;11313;50.116;8.424;2024-03-08T20:05:13;5.07;;;3.50;;
22289;SDS011;11313;50.116;8.424;2024-03-08T20:07:41;7.30;;;3.63;;
22289;SDS011;11313;50.116;8.424;2024-03-08T20:10:11;7.30;;;3.45;;
22289;SDS011;11313;50.116;8.424;2024-03-08T20:12:42;10.38;;;4.22;;
22289;SDS011;11313;50.116;8.424;2024-03-08T20:15:08;12.57;;;4.50;;
22289;SDS011;11313;50.116;8.424;2024-03-08T20:17:36;19.15;;;4.15;;
22289;SDS011;11313;50.116;8.424;2024-03-08T20:20:03;12.32;;;4.30;;
22289;SDS011;11313;50.116;8.424;2024-03-08T20:22:30;11.45;;;3.83;;
22289;SDS011;11313;50.116;8.424;2024-03-08T20:24:56;10.88;;;4.10;;
22289;SDS011;11313;50.116;8.424;2024-03-08T20:27:22;12.23;;;4.05;;
22289;SDS011;11313;50.116;8.424;2024-03-08T20:29:49;11.73;;;4.22;;
22289;SDS011;11313;50.116;8.424;2024-03-08T20:32:15;9.43;;;4.07;;
22289;SDS011;11313;50.116;8.424;2024-03-08T20:34:44;8.25;;;3.70;;
22289;SDS011;11313;50.116;8.424;2024-03-08T20:37:10;9.27;;;3.88;;
22289;SDS011;11313;50.116;8.424;2024-03-08T20:39:36;8.05;;;3.95;;
22289;SDS011;11313;50.116;8.424;2024-03-08T20:42:01;12.10;;;4.10;;
22289;SDS011;11313;50.116;8.424;2024-03-08T20:44:30;9.02;;;3.85;;
22289;SDS011;11313;50.116;8.424;2024-03-08T20:46:56;7.55;;;3.90;;
22289;SDS011;11313;50.116;8.424;2024-03-08T20:49:23;9.02;;;3.63;;
22289;SDS011;11313;50.116;8.424;2024-03-08T20:51:49;8.05;;;3.75;;
22289;SDS011;11313;50.116;8.424;2024-03-08T20:54:14;10.43;;;3.55;;
22289;SDS011;11313;50.116;8.424;2024-03-08T20:56:41;12.07;;;3.90;;
22289;SDS011;11313;50.116;8.424;2024-03-08T20:59:07;8.25;;;3.72;;
22289;SDS011;11313;50.116;8.424;2024-03-08T21:01:35;7.25;;;3.58;;
22289;SDS011;11313;50.116;8.424;2024-03-08T21:04:00;6.35;;;3.72;;
22289;SDS011;11313;50.116;8.424;2024-03-08T21:06:28;7.68;;;3.60;;
22289;SDS011;11313;50.116;8.424;2024-03-08T21:08:54;7.07;;;3.47;;
22289;SDS011;11313;50.116;8.424;2024-03-08T21:11:21;6.93;;;4.07;;
22289;SDS011;11313;50.116;8.424;2024-03-08T21:13:48;7.43;;;3.83;;
22289;SDS011;11313;50.116;8.424;2024-03-08T21:16:14;8.13;;;3.53;;
22289;SDS011;11313;50.116;8.424;2024-03-08T21:18:39;8.68;;;3.53;;
22289;SDS011;11313;50.116;8.424;2024-03-08T21:21:05;6.80;;;3.78;;
22289;SDS011;11313;50.116;8.424;2024-03-08T21:23:33;5.80;;;3.63;;
22289;SDS011;11313;50.116;8.424;2024-03-08T21:25:59;10.30;;;3.72;;
22289;SDS011;11313;50.116;8.424;2024-03-08T21:28:26;7.25;;;3.90;;
22289;SDS011;11313;50.116;8.424;2024-03-08T21:30:55;9.50;;;3.72;;
22289;SDS011;11313;50.116;8.424;2024-03-08T21:33:21;8.38;;;3.97;;
22289;SDS011;11313;50.116;8.424;2024-03-08T21:35:47;7.68;;;3.88;;
22289;SDS011;11313;50.116;8.424;2024-03-08T21:38:14;7.32;;;3.90;;
22289;SDS011;11313;50.116;8.424;2024-03-08T21:40:40;5.82;;;3.80;;
22289;SDS011;11313;50.116;8.424;2024-03-08T21:43:07;8.60;;;3.58;;
22289;SDS011;11313;50.116;8.424;2024-03-08T21:45:34;7.05;;;3.80;;
22289;SDS011;11313;50.116;8.424;2024-03-08T21:48:01;8.48;;;4.43;;
22289;SDS011;11313;50.116;8.424;2024-03-08T21:50:28;8.13;;;3.80;;
22289;SDS011;11313;50.116;8.424;2024-03-08T21:52:58;8.68;;;3.80;;
22289;SDS011;11313;50.116;8.424;2024-03-08T21:55:24;10.45;;;3.47;;
22289;SDS011;11313;50.116;8.424;2024-03-08T21:57:51;7.60;;;3.55;;
22289;SDS011;11313;50.116;8.424;2024-03-08T22:00:17;8.50;;;3.78;;
22289;SDS011;11313;50.116;8.424;2024-03-08T22:02:47;9.07;;;3.55;;
22289;SDS011;11313;50.116;8.424;2024-03-08T22:05:13;6.45;;;3.58;;
22289;SDS011;11313;50.116;8.424;2024-03-08T22:07:45;6.32;;;3.47;;
22289;SDS011;11313;50.116;8.424;2024-03-08T22:10:12;6.38;;;3.60;;
22289;SDS011;11313;50.116;8.424;2024-03-08T22:12:45;7.43;;;3.45;;
22289;SDS011;11313;50.116;8.424;2024-03-08T22:15:14;3.55;;;3.13;;
22289;SDS011;11313;50.116;8.424;2024-03-08T22:17:42;6.88;;;3.58;;
22289;SDS011;11313;50.116;8.424;2024-03-08T22:20:11;6.55;;;3.70;;
22289;SDS011;11313;50.116;8.424;2024-03-08T22:23:06;8.40;;;3.53;;
22289;SDS011;11313;50.116;8.424;2024-03-08T22:25:32;8.00;;;3.60;;
22289;SDS011;11313;50.116;8.424;2024-03-08T22:27:58;9.50;;;3.67;;
22289;SDS011;11313;50.116;8.424;2024-03-08T22:30:24;5.22;;;3.45;;
22289;SDS011;11313;50.116;8.424;2024-03-08T22:32:50;6.35;;;3.67;;
22289;SDS011;11313;50.116;8.424;2024-03-08T22:35:18;7.93;;;3.50;;
22289;SDS011;11313;50.116;8.424;2024-03-08T22:37:45;5.38;;;3.55;;
22289;SDS011;11313;50.116;8.424;2024-03-08T22:40:11;7.20;;;3.90;;
22289;SDS011;11313;50.116;8.424;2024-03-08T22:42:37;4.93;;;3.28;;
22289;SDS011;11313;50.116;8.424;2024-03-08T22:45:04;4.43;;;3.30;;
22289;SDS011;11313;50.116;8.424;2024-03-08T22:47:31;9.57;;;3.67;;
22289;SDS011;11313;50.116;8.424;2024-03-08T22:50:00;5.05;;;3.60;;
22289;SDS011;11313;50.116;8.424;2024-03-08T22:52:28;7.22;;;3.53;;
22289;SDS011;11313;50.116;8.424;2024-03-08T22:54:55;8.02;;;3.60;;
22289;SDS011;11313;50.116;8.424;2024-03-08T22:57:21;7.07;;;3.60;;
22289;SDS011;11313;50.116;8.424;2024-03-08T22:59:46;5.15;;;3.70;;
22289;SDS011;11313;50.116;8.424;2024-03-08T23:02:14;6.63;;;3.75;;
22289;SDS011;11313;50.116;8.424;2024-03-08T23:04:43;6.95;;;3.45;;
22289;SDS011;11313;50.116;8.424;2024-03-08T23:07:09;5.63;;;3.65;;
22289;SDS011;11313;50.116;8.424;2024-03-08T23:09:35;5.43;;;3.60;;
22289;SDS011;11313;50.116;8.424;2024-03-08T23:12:02;5.25;;;3.55;;